createdAt,value
2022-11-12T00:01:15.854Z,7.62
2022-11-12T00:02:37.416Z,7.62
2022-11-12T00:03:59.411Z,7.46
2022-11-12T00:05:20.471Z,7.54
2022-11-12T00:06:41.586Z,7.54
2022-11-12T00:08:04.028Z,7.56
2022-11-12T00:09:24.976Z,7.47
2022-11-12T00:10:46.883Z,7.43
2022-11-12T00:12:08.867Z,7.38
2022-11-12T00:13:30.963Z,7.35
2022-11-12T00:14:52.857Z,7.38
2022-11-12T00:16:16.360Z,7.46
2022-11-12T00:17:38.611Z,7.44
2022-11-12T00:19:00.709Z,7.51
2022-11-12T00:20:25.436Z,7.47
2022-11-12T00:21:47.619Z,7.51
2022-11-12T00:23:09.819Z,7.47
2022-11-12T00:24:32.532Z,7.46
2022-11-12T00:26:01.744Z,7.32
2022-11-12T00:27:23.097Z,7.39
2022-11-12T00:28:46.568Z,7.44
2022-11-12T00:30:09.276Z,7.46
2022-11-12T00:31:31.142Z,7.43
2022-11-12T00:32:52.959Z,7.46
2022-11-12T00:34:14.785Z,7.43
2022-11-12T00:35:37.398Z,7.43
2022-11-12T00:36:59.460Z,7.37
2022-11-12T00:38:23.285Z,7.49
2022-11-12T00:39:48.044Z,7.45
2022-11-12T00:41:10.135Z,7.36
2022-11-12T00:42:32.122Z,7.41
2022-11-12T00:43:54.234Z,7.45
2022-11-12T00:45:18.202Z,7.48
2022-11-12T00:46:39.869Z,7.50
2022-11-12T00:48:03.744Z,7.39
2022-11-12T00:49:27.302Z,7.38
2022-11-12T00:50:50.070Z,7.52
2022-11-12T00:52:13.181Z,7.49
2022-11-12T00:53:35.590Z,7.58
2022-11-12T00:54:56.990Z,7.53
2022-11-12T00:56:20.816Z,7.55
2022-11-12T00:57:45.012Z,7.50
2022-11-12T00:59:06.262Z,7.52
2022-11-12T01:00:28.443Z,7.48
2022-11-12T01:01:49.520Z,7.47
2022-11-12T01:03:11.296Z,7.60
2022-11-12T01:04:33.315Z,7.62
2022-11-12T01:05:55.284Z,7.60
2022-11-12T01:07:16.128Z,7.59
2022-11-12T01:08:38.871Z,7.52
2022-11-12T01:10:00.646Z,7.55
2022-11-12T01:11:29.324Z,7.60
2022-11-12T01:12:53.957Z,7.58
2022-11-12T01:14:22.558Z,7.62
2022-11-12T01:15:44.598Z,7.57
2022-11-12T01:17:08.349Z,7.62
2022-11-12T01:18:30.355Z,7.61
2022-11-12T01:19:51.468Z,7.59
2022-11-12T01:21:14.645Z,7.47
2022-11-12T01:22:36.428Z,7.38
2022-11-12T01:23:58.942Z,7.43
2022-11-12T01:25:20.778Z,7.33
2022-11-12T01:26:43.495Z,7.43
2022-11-12T01:28:04.416Z,7.42
2022-11-12T01:29:26.389Z,7.34
2022-11-12T01:30:51.038Z,7.46
